sensor_id;sensor_type;location;lat;lon;timestamp;pressure;altitude;pressure_sealevel;temperature;humidity
46724;BME280;32463;48.298;11.620;2024-03-02T00:00:19;95291.81;;;5.46;100.00
46724;BME280;32463;48.298;11.620;2024-03-02T00:02:48;95290.50;;;5.41;100.00
46724;BME280;32463;48.298;11.620;2024-03-02T00:05:19;95284.13;;;5.46;100.00
46724;BME280;32463;48.298;11.620;2024-03-02T00:07:53;95276.09;;;5.49;100.00
46724;BME280;32463;48.298;11.620;2024-03-02T00:10:22;95282.19;;;5.48;100.00
46724;BME280;32463;48.298;11.620;2024-03-02T00:12:55;95281.25;;;5.49;100.00
46724;BME280;32463;48.298;11.620;2024-03-02T00:17:54;95281.84;;;5.43;100.00
46724;BME280;32463;48.298;11.620;2024-03-02T00:20:22;95275.41;;;5.38;100.00
46724;BME280;32463;48.298;11.620;2024-03-02T00:22:50;95272.53;;;5.41;100.00
46724;BME280;32463;48.298;11.620;2024-03-02T00:25:17;95273.19;;;5.44;100.00
46724;BME280;32463;48.298;11.620;2024-03-02T00:27:50;95274.50;;;5.56;100.00
46724;BME280;32463;48.298;11.620;2024-03-02T00:33:22;95269.94;;;5.41;100.00
46724;BME280;32463;48.298;11.620;2024-03-02T00:35:49;95272.38;;;5.43;100.00
46724;BME280;32463;48.298;11.620;2024-03-02T00:38:16;95263.69;;;5.44;100.00
46724;BME280;32463;48.298;11.620;2024-03-02T00:40:44;95260.28;;;5.35;100.00
46724;BME280;32463;48.298;11.620;2024-03-02T00:46:18;95260.06;;;5.29;100.00
46724;BME280;32463;48.298;11.620;2024-03-02T00:51:37;95255.75;;;5.29;100.00
46724;BME280;32463;48.298;11.620;2024-03-02T00:54:07;95251.88;;;5.25;100.00
46724;BME280;32463;48.298;11.620;2024-03-02T00:56:35;95251.25;;;5.31;100.00
46724;BME280;32463;48.298;11.620;2024-03-02T00:59:01;95247.38;;;5.27;100.00
46724;BME280;32463;48.298;11.620;2024-03-02T01:01:28;95243.56;;;5.31;100.00
46724;BME280;32463;48.298;11.620;2024-03-02T01:03:54;95250.00;;;5.35;100.00
46724;BME280;32463;48.298;11.620;2024-03-02T01:06:21;95248.19;;;5.28;100.00
46724;BME280;32463;48.298;11.620;2024-03-02T01:08:48;95244.16;;;5.25;100.00
46724;BME280;32463;48.298;11.620;2024-03-02T01:11:16;95246.38;;;5.20;100.00
46724;BME280;32463;48.298;11.620;2024-03-02T01:13:45;95253.59;;;5.17;100.00
46724;BME280;32463;48.298;11.620;2024-03-02T01:16:12;95260.53;;;5.24;100.00
46724;BME280;32463;48.298;11.620;2024-03-02T01:18:39;95260.19;;;5.19;100.00
46724;BME280;32463;48.298;11.620;2024-03-02T01:21:05;95265.94;;;5.13;100.00
46724;BME280;32463;48.298;11.620;2024-03-02T01:23:32;95261.47;;;5.23;100.00
46724;BME280;32463;48.298;11.620;2024-03-02T01:25:58;95255.06;;;5.19;100.00
46724;BME280;32463;48.298;11.620;2024-03-02T01:28:25;95262.78;;;5.27;100.00
46724;BME280;32463;48.298;11.620;2024-03-02T01:30:51;95266.94;;;5.20;100.00
46724;BME280;32463;48.298;11.620;2024-03-02T01:33:19;95275.63;;;5.19;100.00
46724;BME280;32463;48.298;11.620;2024-03-02T01:35:46;95265.16;;;5.21;100.00
46724;BME280;32463;48.298;11.620;2024-03-02T01:38:13;95267.44;;;5.24;100.00
46724;BME280;32463;48.298;11.620;2024-03-02T01:40:39;95264.06;;;5.23;100.00
46724;BME280;32463;48.298;11.620;2024-03-02T01:43:07;95266.31;;;5.26;100.00
46724;BME280;32463;48.298;11.620;2024-03-02T01:45:34;95264.72;;;5.25;100.00
46724;BME280;32463;48.298;11.620;2024-03-02T01:48:01;95258.75;;;5.25;100.00
46724;BME280;32463;48.298;11.620;2024-03-02T01:50:31;95265.00;;;5.22;100.00
46724;BME280;32463;48.298;11.620;2024-03-02T01:52:58;95256.97;;;5.17;100.00
46724;BME280;32463;48.298;11.620;2024-03-02T01:55:25;95269.81;;;5.17;100.00
46724;BME280;32463;48.298;11.620;2024-03-02T01:57:54;95260.19;;;5.19;100.00
46724;BME280;32463;48.298;11.620;2024-03-02T02:00:21;95255.69;;;5.21;100.00
46724;BME280;32463;48.298;11.620;2024-03-02T02:02:50;95257.63;;;5.19;100.00
46724;BME280;32463;48.298;11.620;2024-03-02T02:05:17;95256.66;;;5.20;100.00
46724;BME280;32463;48.298;11.620;2024-03-02T02:07:43;95248.31;;;5.18;100.00
46724;BME280;32463;48.298;11.620;2024-03-02T02:10:10;95247.31;;;5.11;100.00
46724;BME280;32463;48.298;11.620;2024-03-02T02:12:37;95241.88;;;5.14;100.00
46724;BME280;32463;48.298;11.620;2024-03-02T02:15:28;95244.78;;;5.19;100.00
46724;BME280;32463;48.298;11.620;2024-03-02T02:17:55;95236.44;;;5.17;100.00
46724;BME280;32463;48.298;11.620;2024-03-02T02:20:23;95234.81;;;5.16;100.00
46724;BME280;32463;48.298;11.620;2024-03-02T02:23:00;95234.50;;;5.19;100.00
46724;BME280;32463;48.298;11.620;2024-03-02T02:25:28;95226.16;;;5.17;100.00
46724;BME280;32463;48.298;11.620;2024-03-02T02:27:55;95235.41;;;5.10;100.00
46724;BME280;32463;48.298;11.620;2024-03-02T02:32:50;95222.22;;;5.05;100.00
46724;BME280;32463;48.298;11.620;2024-03-02T02:35:17;95219.94;;;5.02;100.00
46724;BME280;32463;48.298;11.620;2024-03-02T02:37:44;95227.66;;;5.02;100.00
46724;BME280;32463;48.298;11.620;2024-03-02T02:40:11;95220.75;;;5.02;100.00
46724;BME280;32463;48.298;11.620;2024-03-02T02:42:39;95228.75;;;4.99;100.00
46724;BME280;32463;48.298;11.620;2024-03-02T02:45:06;95226.84;;;5.01;100.00
46724;BME280;32463;48.298;11.620;2024-03-02T02:47:33;95226.34;;;4.98;100.00
46724;BME280;32463;48.298;11.620;2024-03-02T02:50:01;95227.00;;;5.00;100.00
46724;BME280;32463;48.298;11.620;2024-03-02T02:52:35;95219.59;;;4.97;100.00
46724;BME280;32463;48.298;11.620;2024-03-02T02:55:05;95221.19;;;4.98;100.00
46724;BME280;32463;48.298;11.620;2024-03-02T02:57:32;95227.00;;;5.00;100.00
46724;BME280;32463;48.298;11.620;2024-03-02T03:00:04;95223.47;;;5.01;100.00
46724;BME280;32463;48.298;11.620;2024-03-02T03:02:35;95244.03;;;5.01;100.00
46724;BME280;32463;48.298;11.620;2024-03-02T03:05:02;95232.19;;;5.08;100.00
46724;BME280;32463;48.298;11.620;2024-03-02T03:07:28;95237.97;;;5.10;100.00
46724;BME280;32463;48.298;11.620;2024-03-02T03:09:55;95242.47;;;5.08;100.00
46724;BME280;32463;48.298;11.620;2024-03-02T03:12:21;95241.66;;;5.07;100.00
46724;BME280;32463;48.298;11.620;2024-03-02T03:14:48;95235.72;;;5.07;100.00
46724;BME280;32463;48.298;11.620;2024-03-02T03:17:14;95242.16;;;5.11;100.00
46724;BME280;32463;48.298;11.620;2024-03-02T03:19:41;95243.28;;;5.08;100.00
46724;BME280;32463;48.298;11.620;2024-03-02T03:22:07;95235.72;;;5.07;100.00
46724;BME280;32463;48.298;11.620;2024-03-02T03:24:34;95234.31;;;5.13;100.00
46724;BME280;32463;48.298;11.620;2024-03-02T03:27:00;95229.25;;;5.03;100.00
46724;BME280;32463;48.298;11.620;2024-03-02T03:29:27;95222.94;;;5.15;100.00
46724;BME280;32463;48.298;11.620;2024-03-02T03:31:53;95221.91;;;5.08;100.00
46724;BME280;32463;48.298;11.620;2024-03-02T03:34:20;95223.25;;;5.20;100.00
46724;BME280;32463;48.298;11.620;2024-03-02T03:36:46;95230.78;;;5.14;100.00
46724;BME280;32463;48.298;11.620;2024-03-02T03:39:13;95223.16;;;5.04;100.00
46724;BME280;32463;48.298;11.620;2024-03-02T03:41:42;95221.88;;;5.00;100.00
46724;BME280;32463;48.298;11.620;2024-03-02T03:44:09;95222.22;;;5.05;100.00
46724;BME280;32463;48.298;11.620;2024-03-02T03:46:35;95221.72;;;5.01;100.00
46724;BME280;32463;48.298;11.620;2024-03-02T03:49:03;95228.97;;;5.06;100.00
46724;BME280;32463;48.298;11.620;2024-03-02T03:51:30;95236.16;;;5.02;100.00
46724;BME280;32463;48.298;11.620;2024-03-02T03:53:57;95228.59;;;5.01;100.00
46724;BME280;32463;48.298;11.620;2024-03-02T03:56:23;95240.13;;;4.97;100.00
46724;BME280;32463;48.298;11.620;2024-03-02T03:58:49;95237.94;;;5.02;100.00
46724;BME280;32463;48.298;11.620;2024-03-02T04:01:16;95227.19;;;5.06;100.00
46724;BME280;32463;48.298;11.620;2024-03-02T04:03:42;95234.69;;;5.00;100.00
46724;BME280;32463;48.298;11.620;2024-03-02T04:06:10;95237.22;;;4.92;100.00
46724;BME280;32463;48.298;11.620;2024-03-02T04:08:36;95240.72;;;4.91;100.00
46724;BME280;32463;48.298;11.620;2024-03-02T04:11:03;95236.91;;;4.95;100.00
46724;BME280;32463;48.298;11.620;2024-03-02T04:13:29;95241.09;;;4.96;100.00
46724;BME280;32463;48.298;11.620;2024-03-02T04:15:56;95250.72;;;4.94;100.00
46724;BME280;32463;48.298;11.620;2024-03-02T04:18:22;95249.41;;;4.90;100.00
46724;BME280;32463;48.298;11.620;2024-03-02T04:20:49;95251.34;;;4.88;100.00
46724;BME280;32463;48.298;11.620;2024-03-02T04:23:15;95248.75;;;4.88;100.00
46724;BME280;32463;48.298;11.620;2024-03-02T04:25:42;95264.81;;;4.90;100.00
46724;BME280;32463;48.298;11.620;2024-03-02T04:28:08;95262.50;;;4.79;100.00
46724;BME280;32463;48.298;11.620;2024-03-02T04:30:35;95261.91;;;4.85;100.00
46724;BME280;32463;48.298;11.620;2024-03-02T04:33:01;95264.09;;;4.80;100.00
46724;BME280;32463;48.298;11.620;2024-03-02T04:35:29;95264.91;;;4.80;100.00
46724;BME280;32463;48.298;11.620;2024-03-02T04:37:55;95266.81;;;4.78;100.00
46724;BME280;32463;48.298;11.620;2024-03-02T04:40:21;95273.34;;;4.72;100.00
46724;BME280;32463;48.298;11.620;2024-03-02T04:42:48;95273.66;;;4.69;100.00
46724;BME280;32463;48.298;11.620;2024-03-02T04:45:14;95267.72;;;4.69;100.00
46724;BME280;32463;48.298;11.620;2024-03-02T04:47:41;95270.72;;;4.64;100.00
46724;BME280;32463;48.298;11.620;2024-03-02T04:50:08;95269.53;;;4.77;100.00
46724;BME280;32463;48.298;11.620;2024-03-02T04:52:35;95280.41;;;4.70;100.00
46724;BME280;32463;48.298;11.620;2024-03-02T04:55:02;95285.00;;;4.67;100.00
46724;BME280;32463;48.298;11.620;2024-03-02T04:58:00;95284.34;;;4.65;100.00
46724;BME280;32463;48.298;11.620;2024-03-02T05:00:27;95278.41;;;4.64;100.00
46724;BME280;32463;48.298;11.620;2024-03-02T05:02:53;95283.91;;;4.69;100.00
46724;BME280;32463;48.298;11.620;2024-03-02T05:05:19;95279.94;;;4.75;100.00
46724;BME280;32463;48.298;11.620;2024-03-02T05:07:46;95278.50;;;4.72;100.00
46724;BME280;32463;48.298;11.620;2024-03-02T05:10:12;95273.34;;;4.72;100.00
46724;BME280;32463;48.298;11.620;2024-03-02T05:12:39;95279.50;;;4.80;100.00
46724;BME280;32463;48.298;11.620;2024-03-02T05:15:25;95284.34;;;4.83;100.00
46724;BME280;32463;48.298;11.620;2024-03-02T05:17:51;95293.41;;;4.95;100.00
46724;BME280;32463;48.298;11.620;2024-03-02T05:20:18;95292.41;;;4.88;100.00
46724;BME280;32463;48.298;11.620;2024-03-02T05:22:45;95290.59;;;4.80;100.00
46724;BME280;32463;48.298;11.620;2024-03-02T05:25:12;95298.72;;;4.76;100.00
46724;BME280;32463;48.298;11.620;2024-03-02T05:27:38;95296.00;;;4.77;100.00
46724;BME280;32463;48.298;11.620;2024-03-02T05:30:06;95296.47;;;4.72;100.00
46724;BME280;32463;48.298;11.620;2024-03-02T05:32:34;95294.69;;;4.73;100.00
46724;BME280;32463;48.298;11.620;2024-03-02T05:35:00;95292.28;;;4.71;100.00
46724;BME280;32463;48.298;11.620;2024-03-02T05:37:28;95288.25;;;4.69;100.00
46724;BME280;32463;48.298;11.620;2024-03-02T05:39:54;95292.56;;;4.68;100.00
46724;BME280;32463;48.298;11.620;2024-03-02T05:42:21;95297.41;;;4.71;100.00
46724;BME280;32463;48.298;11.620;2024-03-02T05:44:48;95300.63;;;4.73;100.00
46724;BME280;32463;48.298;11.620;2024-03-02T05:47:14;95303.66;;;4.69;100.00
46724;BME280;32463;48.298;11.620;2024-03-02T05:49:41;95306.22;;;4.69;100.00
46724;BME280;32463;48.298;11.620;2024-03-02T05:52:08;95304.81;;;4.74;100.00
46724;BME280;32463;48.298;11.620;2024-03-02T05:54:34;95310.91;;;4.73;100.00
46724;BME280;32463;48.298;11.620;2024-03-02T05:57:01;95307.38;;;4.74;100.00
46724;BME280;32463;48.298;11.620;2024-03-02T05:59:42;95305.19;;;4.80;100.00
46724;BME280;32463;48.298;11.620;2024-03-02T06:02:08;95306.22;;;4.87;100.00
46724;BME280;32463;48.298;11.620;2024-03-02T06:04:35;95309.25;;;4.90;100.00
46724;BME280;32463;48.298;11.620;2024-03-02T06:07:01;95301.56;;;4.90;100.00
46724;BME280;32463;48.298;11.620;2024-03-02T06:09:28;95299.34;;;4.95;100.00
46724;BME280;32463;48.298;11.620;2024-03-02T06:11:54;95299.22;;;4.97;100.00
46724;BME280;32463;48.298;11.620;2024-03-02T06:14:21;95301.91;;;5.13;100.00
46724;BME280;32463;48.298;11.620;2024-03-02T06:16:47;95295.75;;;5.06;100.00
46724;BME280;32463;48.298;11.620;2024-03-02T06:19:14;95302.13;;;5.02;100.00
46724;BME280;32463;48.298;11.620;2024-03-02T06:21:40;95295.44;;;5.09;100.00
46724;BME280;32463;48.298;11.620;2024-03-02T06:24:07;95303.31;;;5.07;100.00
46724;BME280;32463;48.298;11.620;2024-03-02T06:26:33;95301.31;;;5.19;100.00
46724;BME280;32463;48.298;11.620;2024-03-02T06:28:59;95298.88;;;5.18;100.00
46724;BME280;32463;48.298;11.620;2024-03-02T06:31:27;95299.06;;;5.24;100.00
46724;BME280;32463;48.298;11.620;2024-03-02T06:33:53;95296.97;;;5.20;100.00
46724;BME280;32463;48.298;11.620;2024-03-02T06:36:20;95302.00;;;5.29;100.00
46724;BME280;32463;48.298;11.620;2024-03-02T06:38:46;95302.66;;;5.31;100.00
46724;BME280;32463;48.298;11.620;2024-03-02T06:41:13;95309.75;;;5.37;100.00
46724;BME280;32463;48.298;11.620;2024-03-02T06:43:39;95297.56;;;5.39;100.00
46724;BME280;32463;48.298;11.620;2024-03-02T06:46:06;95305.94;;;5.41;100.00
46724;BME280;32463;48.298;11.620;2024-03-02T06:48:34;95293.13;;;5.50;100.00
46724;BME280;32463;48.298;11.620;2024-03-02T06:51:01;95295.56;;;5.59;100.00
46724;BME280;32463;48.298;11.620;2024-03-02T06:53:27;95287.72;;;5.61;100.00
46724;BME280;32463;48.298;11.620;2024-03-02T06:55:55;95298.19;;;5.67;100.00
46724;BME280;32463;48.298;11.620;2024-03-02T06:58:21;95292.59;;;5.72;100.00
46724;BME280;32463;48.298;11.620;2024-03-02T07:00:48;95298.53;;;5.72;100.00
46724;BME280;32463;48.298;11.620;2024-03-02T07:03:14;95304.84;;;5.86;100.00
46724;BME280;32463;48.298;11.620;2024-03-02T07:05:41;95293.25;;;5.74;100.00
46724;BME280;32463;48.298;11.620;2024-03-02T07:08:07;95303.47;;;5.66;100.00
46724;BME280;32463;48.298;11.620;2024-03-02T07:10:34;95299.00;;;5.68;100.00
46724;BME280;32463;48.298;11.620;2024-03-02T07:13:00;95300.25;;;5.64;100.00
46724;BME280;32463;48.298;11.620;2024-03-02T07:15:27;95304.50;;;5.73;100.00
46724;BME280;32463;48.298;11.620;2024-03-02T07:18:09;95298.41;;;5.82;100.00
46724;BME280;32463;48.298;11.620;2024-03-02T07:20:36;95303.53;;;5.82;100.00
46724;BME280;32463;48.298;11.620;2024-03-02T07:23:04;95303.53;;;5.82;100.00
46724;BME280;32463;48.298;11.620;2024-03-02T07:25:31;95297.44;;;5.75;100.00
46724;BME280;32463;48.298;11.620;2024-03-02T07:27:57;95305.78;;;5.77;100.00
46724;BME280;32463;48.298;11.620;2024-03-02T07:30:24;95302.75;;;5.82;100.00
46724;BME280;32463;48.298;11.620;2024-03-02T07:32:50;95309.03;;;5.79;100.00
46724;BME280;32463;48.298;11.620;2024-03-02T07:35:17;95315.84;;;5.96;100.00
46724;BME280;32463;48.298;11.620;2024-03-02T07:37:43;95314.06;;;5.89;100.00
46724;BME280;32463;48.298;11.620;2024-03-02T07:40:11;95315.28;;;5.85;100.00
46724;BME280;32463;48.298;11.620;2024-03-02T07:42:38;95311.25;;;5.74;100.00
46724;BME280;32463;48.298;11.620;2024-03-02T07:45:06;95321.31;;;5.93;100.00
46724;BME280;32463;48.298;11.620;2024-03-02T07:47:34;95322.94;;;5.94;100.00
46724;BME280;32463;48.298;11.620;2024-03-02T07:50:01;95319.09;;;5.98;100.00
46724;BME280;32463;48.298;11.620;2024-03-02T07:52:28;95317.66;;;6.04;100.00
46724;BME280;32463;48.298;11.620;2024-03-02T07:54:55;95316.88;;;6.12;100.00
46724;BME280;32463;48.298;11.620;2024-03-02T07:57:21;95306.28;;;6.23;100.00
46724;BME280;32463;48.298;11.620;2024-03-02T07:59:48;95322.09;;;6.36;100.00
46724;BME280;32463;48.298;11.620;2024-03-02T08:02:15;95310.84;;;6.45;100.00
46724;BME280;32463;48.298;11.620;2024-03-02T08:04:41;95318.63;;;6.69;100.00
46724;BME280;32463;48.298;11.620;2024-03-02T08:07:08;95322.16;;;6.68;100.00
46724;BME280;32463;48.298;11.620;2024-03-02T08:09:35;95323.78;;;6.86;100.00
46724;BME280;32463;48.298;11.620;2024-03-02T08:12:01;95331.50;;;6.94;100.00
46724;BME280;32463;48.298;11.620;2024-03-02T08:14:29;95339.56;;;6.99;100.00
46724;BME280;32463;48.298;11.620;2024-03-02T08:16:56;95340.50;;;7.06;100.00
46724;BME280;32463;48.298;11.620;2024-03-02T08:19:24;95331.84;;;6.99;100.00
46724;BME280;32463;48.298;11.620;2024-03-02T08:21:50;95341.47;;;7.05;100.00
46724;BME280;32463;48.298;11.620;2024-03-02T08:24:17;95336.19;;;6.98;100.00
46724;BME280;32463;48.298;11.620;2024-03-02T08:26:44;95336.97;;;7.07;100.00
46724;BME280;32463;48.298;11.620;2024-03-02T08:29:10;95348.75;;;7.01;100.00
46724;BME280;32463;48.298;11.620;2024-03-02T08:31:38;95336.97;;;7.07;100.00
46724;BME280;32463;48.298;11.620;2024-03-02T08:34:04;95339.84;;;7.44;100.00
46724;BME280;32463;48.298;11.620;2024-03-02T08:36:31;95344.84;;;7.38;100.00
46724;BME280;32463;48.298;11.620;2024-03-02T08:38:57;95344.00;;;7.70;100.00
46724;BME280;32463;48.298;11.620;2024-03-02T08:41:24;95343.00;;;7.79;100.00
46724;BME280;32463;48.298;11.620;2024-03-02T08:43:50;95348.69;;;8.22;100.00
46724;BME280;32463;48.298;11.620;2024-03-02T08:46:17;95346.22;;;8.59;100.00
46724;BME280;32463;48.298;11.620;2024-03-02T08:48:44;95341.56;;;8.86;100.00
46724;BME280;32463;48.298;11.620;2024-03-02T08:51:10;95342.31;;;9.32;100.00
46724;BME280;32463;48.298;11.620;2024-03-02T08:53:36;95344.44;;;9.14;100.00
46724;BME280;32463;48.298;11.620;2024-03-02T08:56:04;95330.59;;;9.21;100.00
46724;BME280;32463;48.298;11.620;2024-03-02T08:58:31;95334.91;;;9.14;100.00
46724;BME280;32463;48.298;11.620;2024-03-02T09:00:58;95334.47;;;9.25;100.00
46724;BME280;32463;48.298;11.620;2024-03-02T09:03:25;95338.34;;;9.59;100.00
46724;BME280;32463;48.298;11.620;2024-03-02T09:05:52;95329.53;;;9.68;100.00
46724;BME280;32463;48.298;11.620;2024-03-02T09:08:18;95327.31;;;9.94;100.00
46724;BME280;32463;48.298;11.620;2024-03-02T09:10:45;95331.94;;;10.13;100.00
46724;BME280;32463;48.298;11.620;2024-03-02T09:13:11;95325.00;;;10.29;100.00
46724;BME280;32463;48.298;11.620;2024-03-02T09:15:38;95318.41;;;10.48;100.00
46724;BME280;32463;48.298;11.620;2024-03-02T09:18:05;95332.94;;;10.27;100.00
46724;BME280;32463;48.298;11.620;2024-03-02T09:20:32;95332.84;;;10.21;100.00
46724;BME280;32463;48.298;11.620;2024-03-02T09:22:58;95328.88;;;10.54;100.00
46724;BME280;32463;48.298;11.620;2024-03-02T09:25:25;95322.50;;;10.93;100.00
46724;BME280;32463;48.298;11.620;2024-03-02T09:27:52;95331.63;;;10.89;100.00
46724;BME280;32463;48.298;11.620;2024-03-02T09:30:18;95334.88;;;10.76;100.00
46724;BME280;32463;48.298;11.620;2024-03-02T09:32:45;95334.84;;;10.91;100.00
46724;BME280;32463;48.298;11.620;2024-03-02T09:35:11;95336.63;;;10.69;100.00
46724;BME280;32463;48.298;11.620;2024-03-02T09:37:38;95329.19;;;10.66;100.00
46724;BME280;32463;48.298;11.620;2024-03-02T09:40:06;95330.72;;;10.60;100.00
46724;BME280;32463;48.298;11.620;2024-03-02T09:42:34;95330.00;;;11.09;100.00
46724;BME280;32463;48.298;11.620;2024-03-02T09:45:01;95325.19;;;11.06;100.00
46724;BME280;32463;48.298;11.620;2024-03-02T09:47:29;95321.47;;;11.15;100.00
46724;BME280;32463;48.298;11.620;2024-03-02T09:49:55;95319.22;;;11.33;100.00
46724;BME280;32463;48.298;11.620;2024-03-02T09:52:22;95320.81;;;11.56;100.00
46724;BME280;32463;48.298;11.620;2024-03-02T09:54:49;95316.25;;;11.64;100.00
46724;BME280;32463;48.298;11.620;2024-03-02T09:57:16;95315.63;;;11.84;100.00
46724;BME280;32463;48.298;11.620;2024-03-02T09:59:43;95321.81;;;12.24;100.00
46724;BME280;32463;48.298;11.620;2024-03-02T10:02:10;95321.00;;;12.17;100.00
46724;BME280;32463;48.298;11.620;2024-03-02T10:04:37;95308.81;;;11.55;100.00
46724;BME280;32463;48.298;11.620;2024-03-02T10:09:37;95309.88;;;12.36;100.00
46724;BME280;32463;48.298;11.620;2024-03-02T10:12:05;95308.91;;;12.43;100.00
46724;BME280;32463;48.298;11.620;2024-03-02T10:14:32;95313.13;;;12.03;100.00
46724;BME280;32463;48.298;11.620;2024-03-02T10:17:05;95304.47;;;11.90;100.00
46724;BME280;32463;48.298;11.620;2024-03-02T10:19:32;95310.00;;;12.14;100.00
46724;BME280;32463;48.298;11.620;2024-03-02T10:22:01;95300.22;;;12.23;100.00
46724;BME280;32463;48.298;11.620;2024-03-02T10:24:37;95295.94;;;12.50;100.00
46724;BME280;32463;48.298;11.620;2024-03-02T10:27:08;95307.06;;;12.37;100.00
46724;BME280;32463;48.298;11.620;2024-03-02T10:29:39;95297.25;;;13.13;100.00
46724;BME280;32463;48.298;11.620;2024-03-02T10:32:09;95298.84;;;13.47;100.00
46724;BME280;32463;48.298;11.620;2024-03-02T10:34:36;95296.06;;;13.42;100.00
46724;BME280;32463;48.298;11.620;2024-03-02T10:37:03;95291.63;;;13.49;100.00
46724;BME280;32463;48.298;11.620;2024-03-02T10:39:30;95290.78;;;13.82;100.00
46724;BME280;32463;48.298;11.620;2024-03-02T10:41:58;95289.66;;;13.25;100.00
46724;BME280;32463;48.298;11.620;2024-03-02T10:44:25;95288.03;;;13.24;100.00
46724;BME280;32463;48.298;11.620;2024-03-02T10:46:53;95288.44;;;13.61;100.00
46724;BME280;32463;48.298;11.620;2024-03-02T10:49:22;95285.03;;;13.47;100.00
46724;BME280;32463;48.298;11.620;2024-03-02T10:51:50;95279.81;;;13.54;100.00
46724;BME280;32463;48.298;11.620;2024-03-02T10:54:16;95274.38;;;13.75;100.00
46724;BME280;32463;48.298;11.620;2024-03-02T10:56:51;95272.66;;;14.13;99.59
46724;BME280;32463;48.298;11.620;2024-03-02T10:59:35;95265.03;;;14.12;99.62
46724;BME280;32463;48.298;11.620;2024-03-02T11:02:03;95258.97;;;14.25;93.88
46724;BME280;32463;48.298;11.620;2024-03-02T11:04:32;95262.00;;;14.15;97.19
46724;BME280;32463;48.298;11.620;2024-03-02T11:07:05;95259.88;;;13.99;94.09
46724;BME280;32463;48.298;11.620;2024-03-02T11:09:37;95253.06;;;14.49;94.76
46724;BME280;32463;48.298;11.620;2024-03-02T11:14:40;95250.81;;;14.91;92.52
46724;BME280;32463;48.298;11.620;2024-03-02T11:17:08;95245.53;;;15.22;88.25
46724;BME280;32463;48.298;11.620;2024-03-02T11:19:38;95238.22;;;15.31;86.83
46724;BME280;32463;48.298;11.620;2024-03-02T11:22:05;95236.34;;;14.95;86.00
46724;BME280;32463;48.298;11.620;2024-03-02T11:24:32;95232.47;;;15.47;79.86
46724;BME280;32463;48.298;11.620;2024-03-02T11:27:05;95228.66;;;15.68;78.14
46724;BME280;32463;48.298;11.620;2024-03-02T11:32:20;95227.16;;;16.27;74.42
46724;BME280;32463;48.298;11.620;2024-03-02T11:34:48;95212.91;;;16.41;73.69
46724;BME280;32463;48.298;11.620;2024-03-02T11:37:16;95215.34;;;16.96;72.71
46724;BME280;32463;48.298;11.620;2024-03-02T11:39:48;95212.41;;;16.32;74.68
46724;BME280;32463;48.298;11.620;2024-03-02T11:42:15;95204.88;;;16.54;73.99
46724;BME280;32463;48.298;11.620;2024-03-02T11:44:45;95203.84;;;16.25;75.06
46724;BME280;32463;48.298;11.620;2024-03-02T11:47:14;95191.91;;;16.47;73.70
46724;BME280;32463;48.298;11.620;2024-03-02T11:49:49;95185.44;;;17.03;69.99
46724;BME280;32463;48.298;11.620;2024-03-02T11:52:17;95184.28;;;17.46;65.19
46724;BME280;32463;48.298;11.620;2024-03-02T11:54:45;95170.06;;;17.42;66.16
46724;BME280;32463;48.298;11.620;2024-03-02T11:57:22;95170.97;;;17.71;63.79
46724;BME280;32463;48.298;11.620;2024-03-02T11:59:49;95171.81;;;18.28;61.06
46724;BME280;32463;48.298;11.620;2024-03-02T12:02:20;95165.56;;;18.46;59.00
46724;BME280;32463;48.298;11.620;2024-03-02T12:04:48;95162.41;;;17.64;63.13
46724;BME280;32463;48.298;11.620;2024-03-02T12:07:21;95155.28;;;18.28;60.74
46724;BME280;32463;48.298;11.620;2024-03-02T12:09:59;95150.09;;;19.11;56.97
46724;BME280;32463;48.298;11.620;2024-03-02T12:12:27;95156.47;;;18.99;56.38
46724;BME280;32463;48.298;11.620;2024-03-02T12:14:54;95152.09;;;18.42;58.19
46724;BME280;32463;48.298;11.620;2024-03-02T12:17:22;95154.00;;;18.30;57.77
46724;BME280;32463;48.298;11.620;2024-03-02T12:19:49;95143.50;;;18.92;57.03
46724;BME280;32463;48.298;11.620;2024-03-02T12:22:15;95140.25;;;19.40;54.63
46724;BME280;32463;48.298;11.620;2024-03-02T12:24:43;95138.34;;;20.23;53.33
46724;BME280;32463;48.298;11.620;2024-03-02T12:27:11;95141.56;;;19.60;52.14
46724;BME280;32463;48.298;11.620;2024-03-02T12:29:38;95132.63;;;19.56;50.65
46724;BME280;32463;48.298;11.620;2024-03-02T12:32:05;95135.41;;;18.94;51.32
46724;BME280;32463;48.298;11.620;2024-03-02T12:34:32;95130.22;;;19.37;51.04
46724;BME280;32463;48.298;11.620;2024-03-02T12:36:58;95126.16;;;19.46;51.90
46724;BME280;32463;48.298;11.620;2024-03-02T12:39:25;95114.75;;;19.79;50.00
46724;BME280;32463;48.298;11.620;2024-03-02T12:41:52;95115.59;;;18.86;50.95
46724;BME280;32463;48.298;11.620;2024-03-02T12:44:19;95109.19;;;17.51;54.79
46724;BME280;32463;48.298;11.620;2024-03-02T12:46:46;95112.63;;;18.82;53.82
46724;BME280;32463;48.298;11.620;2024-03-02T12:49:14;95105.19;;;19.13;52.85
46724;BME280;32463;48.298;11.620;2024-03-02T12:51:42;95106.44;;;18.27;53.61
46724;BME280;32463;48.298;11.620;2024-03-02T12:54:12;95100.13;;;19.67;50.39
46724;BME280;32463;48.298;11.620;2024-03-02T12:56:38;95090.06;;;20.07;48.21
46724;BME280;32463;48.298;11.620;2024-03-02T12:59:05;95096.44;;;19.90;49.73
46724;BME280;32463;48.298;11.620;2024-03-02T13:01:31;95091.84;;;18.98;51.27
46724;BME280;32463;48.298;11.620;2024-03-02T13:03:58;95086.22;;;18.72;52.08
46724;BME280;32463;48.298;11.620;2024-03-02T13:06:26;95083.59;;;19.93;50.01
46724;BME280;32463;48.298;11.620;2024-03-02T13:08:54;95079.16;;;19.50;50.26
46724;BME280;32463;48.298;11.620;2024-03-02T13:11:22;95080.53;;;19.14;51.49